sensor_id;sensor_type;location;lat;lon;timestamp;P1;durP1;ratioP1;P2;durP2;ratioP2
25854;SDS011;13680;49.936;11.344;2023-03-01T00:00:25;32.85;;;15.40;;
25854;SDS011;13680;49.936;11.344;2023-03-01T00:02:51;29.00;;;15.75;;
25854;SDS011;13680;49.936;11.344;2023-03-01T00:05:16;39.20;;;15.40;;
25854;SDS011;13680;49.936;11.344;2023-03-01T00:07:41;26.95;;;14.90;;
25854;SDS011;13680;49.936;11.344;2023-03-01T00:10:07;31.00;;;15.15;;
25854;SDS011;13680;49.936;11.344;2023-03-01T00:12:33;30.42;;;15.52;;
25854;SDS011;13680;49.936;11.344;2023-03-01T00:14:58;28.05;;;14.25;;
25854;SDS011;13680;49.936;11.344;2023-03-01T00:17:23;28.63;;;15.10;;
25854;SDS011;13680;49.936;11.344;2023-03-01T00:19:48;31.42;;;15.00;;
25854;SDS011;13680;49.936;11.344;2023-03-01T00:22:14;30.70;;;14.63;;
25854;SDS011;13680;49.936;11.344;2023-03-01T00:24:39;28.00;;;15.32;;
25854;SDS011;13680;49.936;11.344;2023-03-01T00:27:04;27.88;;;14.40;;
25854;SDS011;13680;49.936;11.344;2023-03-01T00:29:29;27.05;;;13.95;;
25854;SDS011;13680;49.936;11.344;2023-03-01T00:31:55;27.33;;;14.27;;
25854;SDS011;13680;49.936;11.344;2023-03-01T00:34:20;28.88;;;14.50;;
25854;SDS011;13680;49.936;11.344;2023-03-01T00:36:46;29.48;;;15.75;;
25854;SDS011;13680;49.936;11.344;2023-03-01T00:39:13;27.15;;;14.63;;
25854;SDS011;13680;49.936;11.344;2023-03-01T00:41:39;27.42;;;15.82;;
25854;SDS011;13680;49.936;11.344;2023-03-01T00:44:05;35.38;;;15.30;;
25854;SDS011;13680;49.936;11.344;2023-03-01T00:46:30;31.73;;;15.52;;
25854;SDS011;13680;49.936;11.344;2023-03-01T00:48:55;30.75;;;15.30;;
25854;SDS011;13680;49.936;11.344;2023-03-01T00:51:22;29.40;;;15.43;;
25854;SDS011;13680;49.936;11.344;2023-03-01T00:53:50;27.25;;;14.65;;
25854;SDS011;13680;49.936;11.344;2023-03-01T00:56:16;28.77;;;15.23;;
25854;SDS011;13680;49.936;11.344;2023-03-01T00:58:42;30.95;;;15.05;;
25854;SDS011;13680;49.936;11.344;2023-03-01T01:01:24;34.95;;;14.85;;
25854;SDS011;13680;49.936;11.344;2023-03-01T01:03:53;32.95;;;15.63;;
25854;SDS011;13680;49.936;11.344;2023-03-01T01:06:22;32.58;;;15.70;;
25854;SDS011;13680;49.936;11.344;2023-03-01T01:08:52;33.08;;;14.50;;
25854;SDS011;13680;49.936;11.344;2023-03-01T01:11:19;29.55;;;14.55;;
25854;SDS011;13680;49.936;11.344;2023-03-01T01:13:45;31.80;;;16.05;;
25854;SDS011;13680;49.936;11.344;2023-03-01T01:16:12;30.67;;;15.65;;
25854;SDS011;13680;49.936;11.344;2023-03-01T01:18:38;33.75;;;15.40;;
25854;SDS011;13680;49.936;11.344;2023-03-01T01:21:11;31.15;;;15.68;;
25854;SDS011;13680;49.936;11.344;2023-03-01T01:26:09;28.70;;;15.30;;
25854;SDS011;13680;49.936;11.344;2023-03-01T01:28:36;29.98;;;14.27;;
25854;SDS011;13680;49.936;11.344;2023-03-01T01:31:02;29.90;;;15.23;;
25854;SDS011;13680;49.936;11.344;2023-03-01T01:33:28;32.10;;;15.50;;
25854;SDS011;13680;49.936;11.344;2023-03-01T01:35:54;29.02;;;14.85;;
25854;SDS011;13680;49.936;11.344;2023-03-01T01:38:19;31.33;;;15.77;;
25854;SDS011;13680;49.936;11.344;2023-03-01T01:40:46;27.83;;;14.98;;
25854;SDS011;13680;49.936;11.344;2023-03-01T01:43:23;28.75;;;15.18;;
25854;SDS011;13680;49.936;11.344;2023-03-01T01:45:50;33.63;;;14.50;;
25854;SDS011;13680;49.936;11.344;2023-03-01T01:48:21;30.75;;;15.05;;
25854;SDS011;13680;49.936;11.344;2023-03-01T01:50:56;32.22;;;15.15;;
25854;SDS011;13680;49.936;11.344;2023-03-01T01:53:25;30.00;;;15.43;;
25854;SDS011;13680;49.936;11.344;2023-03-01T01:55:53;33.83;;;15.88;;
25854;SDS011;13680;49.936;11.344;2023-03-01T01:58:22;32.15;;;14.80;;
25854;SDS011;13680;49.936;11.344;2023-03-01T02:00:51;29.98;;;15.85;;
25854;SDS011;13680;49.936;11.344;2023-03-01T02:03:18;30.42;;;15.10;;
25854;SDS011;13680;49.936;11.344;2023-03-01T02:05:54;31.55;;;15.20;;
25854;SDS011;13680;49.936;11.344;2023-03-01T02:08:21;30.33;;;14.82;;
25854;SDS011;13680;49.936;11.344;2023-03-01T02:10:50;28.52;;;14.70;;
25854;SDS011;13680;49.936;11.344;2023-03-01T02:13:17;29.83;;;15.07;;
25854;SDS011;13680;49.936;11.344;2023-03-01T02:15:43;33.63;;;16.02;;
25854;SDS011;13680;49.936;11.344;2023-03-01T02:18:10;40.55;;;15.52;;
25854;SDS011;13680;49.936;11.344;2023-03-01T02:23:41;29.88;;;14.45;;
25854;SDS011;13680;49.936;11.344;2023-03-01T02:26:18;33.10;;;15.05;;
25854;SDS011;13680;49.936;11.344;2023-03-01T02:28:49;31.58;;;14.48;;
25854;SDS011;13680;49.936;11.344;2023-03-01T02:31:16;32.83;;;14.55;;
25854;SDS011;13680;49.936;11.344;2023-03-01T02:34:02;31.48;;;15.30;;
25854;SDS011;13680;49.936;11.344;2023-03-01T02:36:31;28.02;;;14.10;;
25854;SDS011;13680;49.936;11.344;2023-03-01T02:39:01;29.65;;;14.95;;
25854;SDS011;13680;49.936;11.344;2023-03-01T02:41:30;30.65;;;15.27;;
25854;SDS011;13680;49.936;11.344;2023-03-01T02:43:59;29.77;;;13.85;;
25854;SDS011;13680;49.936;11.344;2023-03-01T02:46:25;32.58;;;16.15;;
25854;SDS011;13680;49.936;11.344;2023-03-01T02:48:51;31.55;;;15.13;;
25854;SDS011;13680;49.936;11.344;2023-03-01T02:51:26;27.15;;;14.55;;
25854;SDS011;13680;49.936;11.344;2023-03-01T02:56:38;27.67;;;14.60;;
25854;SDS011;13680;49.936;11.344;2023-03-01T02:59:04;29.45;;;15.55;;
25854;SDS011;13680;49.936;11.344;2023-03-01T03:01:30;35.50;;;16.02;;
25854;SDS011;13680;49.936;11.344;2023-03-01T03:04:11;29.42;;;14.57;;
25854;SDS011;13680;49.936;11.344;2023-03-01T03:06:42;32.45;;;14.93;;
25854;SDS011;13680;49.936;11.344;2023-03-01T03:09:09;35.63;;;15.45;;
25854;SDS011;13680;49.936;11.344;2023-03-01T03:11:34;35.42;;;16.00;;
25854;SDS011;13680;49.936;11.344;2023-03-01T03:14:01;29.92;;;15.30;;
25854;SDS011;13680;49.936;11.344;2023-03-01T03:16:27;36.33;;;15.38;;
25854;SDS011;13680;49.936;11.344;2023-03-01T03:18:54;37.25;;;16.42;;
25854;SDS011;13680;49.936;11.344;2023-03-01T03:21:20;33.78;;;17.13;;
25854;SDS011;13680;49.936;11.344;2023-03-01T03:23:45;32.58;;;16.42;;
25854;SDS011;13680;49.936;11.344;2023-03-01T03:26:10;35.50;;;16.48;;
25854;SDS011;13680;49.936;11.344;2023-03-01T03:28:38;33.65;;;17.08;;
25854;SDS011;13680;49.936;11.344;2023-03-01T03:31:05;36.42;;;16.48;;
25854;SDS011;13680;49.936;11.344;2023-03-01T03:33:32;38.20;;;16.77;;
25854;SDS011;13680;49.936;11.344;2023-03-01T03:35:58;32.85;;;16.65;;
25854;SDS011;13680;49.936;11.344;2023-03-01T03:38:23;32.08;;;16.40;;
25854;SDS011;13680;49.936;11.344;2023-03-01T03:41:00;33.47;;;17.55;;
25854;SDS011;13680;49.936;11.344;2023-03-01T03:43:28;32.92;;;16.52;;
25854;SDS011;13680;49.936;11.344;2023-03-01T03:45:55;32.63;;;16.65;;
25854;SDS011;13680;49.936;11.344;2023-03-01T03:48:22;32.42;;;16.85;;
25854;SDS011;13680;49.936;11.344;2023-03-01T03:50:49;35.72;;;17.13;;
25854;SDS011;13680;49.936;11.344;2023-03-01T03:53:16;34.55;;;17.27;;
25854;SDS011;13680;49.936;11.344;2023-03-01T03:55:42;36.55;;;17.35;;
25854;SDS011;13680;49.936;11.344;2023-03-01T03:58:09;39.88;;;17.15;;
25854;SDS011;13680;49.936;11.344;2023-03-01T04:00:39;31.90;;;16.48;;
25854;SDS011;13680;49.936;11.344;2023-03-01T04:03:06;36.22;;;16.45;;
25854;SDS011;13680;49.936;11.344;2023-03-01T04:05:31;37.30;;;15.63;;
25854;SDS011;13680;49.936;11.344;2023-03-01T04:07:57;36.20;;;16.58;;
25854;SDS011;13680;49.936;11.344;2023-03-01T04:10:34;35.08;;;16.45;;
25854;SDS011;13680;49.936;11.344;2023-03-01T04:13:04;32.70;;;16.88;;
25854;SDS011;13680;49.936;11.344;2023-03-01T04:15:32;37.30;;;16.70;;
25854;SDS011;13680;49.936;11.344;2023-03-01T04:17:58;40.63;;;17.05;;
25854;SDS011;13680;49.936;11.344;2023-03-01T04:20:26;32.60;;;15.40;;
25854;SDS011;13680;49.936;11.344;2023-03-01T04:25:41;35.25;;;16.67;;
25854;SDS011;13680;49.936;11.344;2023-03-01T04:28:10;39.53;;;17.27;;
25854;SDS011;13680;49.936;11.344;2023-03-01T04:30:36;37.47;;;16.70;;
25854;SDS011;13680;49.936;11.344;2023-03-01T04:33:03;36.42;;;18.02;;
25854;SDS011;13680;49.936;11.344;2023-03-01T04:35:32;39.50;;;17.05;;
25854;SDS011;13680;49.936;11.344;2023-03-01T04:37:58;36.25;;;16.92;;
25854;SDS011;13680;49.936;11.344;2023-03-01T04:40:24;35.00;;;16.77;;
25854;SDS011;13680;49.936;11.344;2023-03-01T04:42:49;35.67;;;17.85;;
25854;SDS011;13680;49.936;11.344;2023-03-01T04:45:15;33.55;;;16.95;;
25854;SDS011;13680;49.936;11.344;2023-03-01T04:47:41;42.03;;;19.17;;
25854;SDS011;13680;49.936;11.344;2023-03-01T04:50:12;35.15;;;17.00;;
25854;SDS011;13680;49.936;11.344;2023-03-01T04:52:39;34.42;;;17.10;;
25854;SDS011;13680;49.936;11.344;2023-03-01T04:55:04;36.42;;;17.20;;
25854;SDS011;13680;49.936;11.344;2023-03-01T04:57:30;35.38;;;18.02;;
25854;SDS011;13680;49.936;11.344;2023-03-01T04:59:56;40.03;;;18.70;;
25854;SDS011;13680;49.936;11.344;2023-03-01T05:02:22;38.65;;;18.75;;
25854;SDS011;13680;49.936;11.344;2023-03-01T05:04:47;35.40;;;17.98;;
25854;SDS011;13680;49.936;11.344;2023-03-01T05:07:12;40.05;;;18.02;;
25854;SDS011;13680;49.936;11.344;2023-03-01T05:09:44;33.22;;;17.20;;
25854;SDS011;13680;49.936;11.344;2023-03-01T05:12:13;38.17;;;18.27;;
25854;SDS011;13680;49.936;11.344;2023-03-01T05:14:39;40.03;;;18.25;;
25854;SDS011;13680;49.936;11.344;2023-03-01T05:17:05;38.17;;;17.08;;
25854;SDS011;13680;49.936;11.344;2023-03-01T05:19:31;37.33;;;17.33;;
25854;SDS011;13680;49.936;11.344;2023-03-01T05:21:57;33.05;;;17.35;;
25854;SDS011;13680;49.936;11.344;2023-03-01T05:24:30;36.30;;;17.67;;
25854;SDS011;13680;49.936;11.344;2023-03-01T05:26:57;38.88;;;18.58;;
25854;SDS011;13680;49.936;11.344;2023-03-01T05:29:23;38.28;;;17.38;;
25854;SDS011;13680;49.936;11.344;2023-03-01T05:31:59;39.78;;;18.20;;
25854;SDS011;13680;49.936;11.344;2023-03-01T05:34:27;37.88;;;17.95;;
25854;SDS011;13680;49.936;11.344;2023-03-01T05:36:54;38.00;;;18.38;;
25854;SDS011;13680;49.936;11.344;2023-03-01T05:39:20;38.95;;;18.63;;
25854;SDS011;13680;49.936;11.344;2023-03-01T05:41:47;40.55;;;18.58;;
25854;SDS011;13680;49.936;11.344;2023-03-01T05:44:13;37.50;;;17.20;;
25854;SDS011;13680;49.936;11.344;2023-03-01T05:46:39;43.08;;;20.55;;
25854;SDS011;13680;49.936;11.344;2023-03-01T05:49:04;37.70;;;18.80;;
25854;SDS011;13680;49.936;11.344;2023-03-01T05:51:30;37.55;;;17.40;;
25854;SDS011;13680;49.936;11.344;2023-03-01T05:53:55;49.30;;;18.30;;
25854;SDS011;13680;49.936;11.344;2023-03-01T05:56:21;39.15;;;18.00;;
25854;SDS011;13680;49.936;11.344;2023-03-01T05:58:47;39.22;;;18.70;;
25854;SDS011;13680;49.936;11.344;2023-03-01T06:01:13;40.22;;;18.58;;
25854;SDS011;13680;49.936;11.344;2023-03-01T06:03:38;40.35;;;18.20;;
25854;SDS011;13680;49.936;11.344;2023-03-01T06:06:04;40.35;;;18.30;;
25854;SDS011;13680;49.936;11.344;2023-03-01T06:08:29;39.53;;;18.73;;
25854;SDS011;13680;49.936;11.344;2023-03-01T06:10:55;38.15;;;17.52;;
25854;SDS011;13680;49.936;11.344;2023-03-01T06:13:20;35.08;;;17.55;;
25854;SDS011;13680;49.936;11.344;2023-03-01T06:15:46;35.78;;;17.60;;
25854;SDS011;13680;49.936;11.344;2023-03-01T06:18:11;38.38;;;18.55;;
25854;SDS011;13680;49.936;11.344;2023-03-01T06:20:37;39.42;;;18.52;;
25854;SDS011;13680;49.936;11.344;2023-03-01T06:23:02;40.83;;;18.88;;
25854;SDS011;13680;49.936;11.344;2023-03-01T06:25:27;38.33;;;18.73;;
25854;SDS011;13680;49.936;11.344;2023-03-01T06:27:53;38.60;;;19.00;;
25854;SDS011;13680;49.936;11.344;2023-03-01T06:30:18;44.50;;;19.52;;
25854;SDS011;13680;49.936;11.344;2023-03-01T06:32:45;39.15;;;19.02;;
25854;SDS011;13680;49.936;11.344;2023-03-01T06:35:11;37.78;;;19.27;;
25854;SDS011;13680;49.936;11.344;2023-03-01T06:37:38;40.72;;;18.40;;
25854;SDS011;13680;49.936;11.344;2023-03-01T06:40:04;39.97;;;19.55;;
25854;SDS011;13680;49.936;11.344;2023-03-01T06:42:37;41.15;;;19.27;;
25854;SDS011;13680;49.936;11.344;2023-03-01T06:45:04;39.97;;;20.30;;
25854;SDS011;13680;49.936;11.344;2023-03-01T06:47:31;37.00;;;18.30;;
25854;SDS011;13680;49.936;11.344;2023-03-01T06:49:58;35.92;;;17.98;;
25854;SDS011;13680;49.936;11.344;2023-03-01T06:52:23;39.35;;;18.65;;
25854;SDS011;13680;49.936;11.344;2023-03-01T06:54:49;37.80;;;18.83;;
25854;SDS011;13680;49.936;11.344;2023-03-01T06:57:14;37.45;;;17.80;;
25854;SDS011;13680;49.936;11.344;2023-03-01T06:59:39;37.88;;;18.05;;
25854;SDS011;13680;49.936;11.344;2023-03-01T07:02:05;41.35;;;19.48;;
25854;SDS011;13680;49.936;11.344;2023-03-01T07:04:30;40.63;;;18.52;;
25854;SDS011;13680;49.936;11.344;2023-03-01T07:06:56;41.08;;;18.80;;
25854;SDS011;13680;49.936;11.344;2023-03-01T07:09:24;35.28;;;17.88;;
25854;SDS011;13680;49.936;11.344;2023-03-01T07:11:50;35.42;;;18.33;;
25854;SDS011;13680;49.936;11.344;2023-03-01T07:14:15;38.38;;;19.17;;
25854;SDS011;13680;49.936;11.344;2023-03-01T07:16:41;35.50;;;18.38;;
25854;SDS011;13680;49.936;11.344;2023-03-01T07:19:06;92.32;;;38.97;;
25854;SDS011;13680;49.936;11.344;2023-03-01T07:21:32;52.33;;;24.65;;
25854;SDS011;13680;49.936;11.344;2023-03-01T07:23:57;36.80;;;17.67;;
25854;SDS011;13680;49.936;11.344;2023-03-01T07:26:22;41.47;;;18.55;;
25854;SDS011;13680;49.936;11.344;2023-03-01T07:28:48;35.97;;;18.10;;
25854;SDS011;13680;49.936;11.344;2023-03-01T07:31:13;33.25;;;17.23;;
25854;SDS011;13680;49.936;11.344;2023-03-01T07:33:38;40.97;;;19.27;;
25854;SDS011;13680;49.936;11.344;2023-03-01T07:36:04;35.88;;;18.02;;
25854;SDS011;13680;49.936;11.344;2023-03-01T07:38:30;39.53;;;18.25;;
25854;SDS011;13680;49.936;11.344;2023-03-01T07:40:59;36.10;;;17.73;;
25854;SDS011;13680;49.936;11.344;2023-03-01T07:43:26;37.67;;;18.30;;
25854;SDS011;13680;49.936;11.344;2023-03-01T07:45:52;35.03;;;18.20;;
25854;SDS011;13680;49.936;11.344;2023-03-01T07:48:17;35.22;;;18.50;;
25854;SDS011;13680;49.936;11.344;2023-03-01T07:50:42;33.03;;;17.02;;
25854;SDS011;13680;49.936;11.344;2023-03-01T07:53:08;38.70;;;18.48;;
25854;SDS011;13680;49.936;11.344;2023-03-01T07:55:35;36.67;;;17.85;;
25854;SDS011;13680;49.936;11.344;2023-03-01T07:58:00;38.95;;;18.90;;
25854;SDS011;13680;49.936;11.344;2023-03-01T08:00:26;36.35;;;17.52;;
25854;SDS011;13680;49.936;11.344;2023-03-01T08:02:51;37.17;;;17.92;;
25854;SDS011;13680;49.936;11.344;2023-03-01T08:05:16;33.72;;;17.42;;
25854;SDS011;13680;49.936;11.344;2023-03-01T08:07:42;31.92;;;16.23;;
25854;SDS011;13680;49.936;11.344;2023-03-01T08:10:07;30.63;;;16.80;;
25854;SDS011;13680;49.936;11.344;2023-03-01T08:12:33;37.10;;;18.67;;
25854;SDS011;13680;49.936;11.344;2023-03-01T08:14:59;38.13;;;17.80;;
25854;SDS011;13680;49.936;11.344;2023-03-01T08:17:24;31.40;;;17.27;;
25854;SDS011;13680;49.936;11.344;2023-03-01T08:19:49;35.30;;;18.92;;
25854;SDS011;13680;49.936;11.344;2023-03-01T08:22:15;34.85;;;16.55;;
25854;SDS011;13680;49.936;11.344;2023-03-01T08:24:40;31.45;;;15.60;;
25854;SDS011;13680;49.936;11.344;2023-03-01T08:27:05;40.63;;;18.02;;
25854;SDS011;13680;49.936;11.344;2023-03-01T08:29:31;33.33;;;17.25;;
25854;SDS011;13680;49.936;11.344;2023-03-01T08:31:57;34.83;;;16.25;;
25854;SDS011;13680;49.936;11.344;2023-03-01T08:34:23;37.80;;;17.77;;
25854;SDS011;13680;49.936;11.344;2023-03-01T08:36:48;37.72;;;16.15;;
25854;SDS011;13680;49.936;11.344;2023-03-01T08:39:15;33.83;;;17.20;;
25854;SDS011;13680;49.936;11.344;2023-03-01T08:41:43;36.35;;;18.02;;
25854;SDS011;13680;49.936;11.344;2023-03-01T08:44:09;35.53;;;17.10;;
25854;SDS011;13680;49.936;11.344;2023-03-01T08:46:37;33.45;;;16.85;;
25854;SDS011;13680;49.936;11.344;2023-03-01T08:49:08;35.85;;;18.13;;
25854;SDS011;13680;49.936;11.344;2023-03-01T08:51:38;36.17;;;17.60;;
25854;SDS011;13680;49.936;11.344;2023-03-01T08:54:04;30.95;;;16.00;;
25854;SDS011;13680;49.936;11.344;2023-03-01T08:56:30;31.52;;;17.13;;
25854;SDS011;13680;49.936;11.344;2023-03-01T08:58:56;32.00;;;17.38;;
25854;SDS011;13680;49.936;11.344;2023-03-01T09:01:21;32.95;;;16.10;;
25854;SDS011;13680;49.936;11.344;2023-03-01T09:03:47;33.42;;;16.48;;
25854;SDS011;13680;49.936;11.344;2023-03-01T09:06:12;35.65;;;16.75;;
25854;SDS011;13680;49.936;11.344;2023-03-01T09:08:40;30.90;;;16.50;;
25854;SDS011;13680;49.936;11.344;2023-03-01T09:11:07;29.92;;;15.48;;
25854;SDS011;13680;49.936;11.344;2023-03-01T09:13:34;32.03;;;16.27;;
25854;SDS011;13680;49.936;11.344;2023-03-01T09:16:03;31.50;;;16.70;;
25854;SDS011;13680;49.936;11.344;2023-03-01T09:18:30;32.75;;;16.27;;
25854;SDS011;13680;49.936;11.344;2023-03-01T09:21:09;32.97;;;16.15;;
25854;SDS011;13680;49.936;11.344;2023-03-01T09:23:37;27.50;;;15.82;;
25854;SDS011;13680;49.936;11.344;2023-03-01T09:26:06;30.67;;;16.45;;
25854;SDS011;13680;49.936;11.344;2023-03-01T09:28:34;29.90;;;16.23;;
25854;SDS011;13680;49.936;11.344;2023-03-01T09:31:00;32.13;;;15.90;;
25854;SDS011;13680;49.936;11.344;2023-03-01T09:33:26;31.02;;;16.10;;
25854;SDS011;13680;49.936;11.344;2023-03-01T09:36:00;31.05;;;16.73;;
25854;SDS011;13680;49.936;11.344;2023-03-01T09:38:27;29.02;;;16.13;;
25854;SDS011;13680;49.936;11.344;2023-03-01T09:40:52;29.60;;;15.32;;
25854;SDS011;13680;49.936;11.344;2023-03-01T09:43:21;28.42;;;15.40;;
25854;SDS011;13680;49.936;11.344;2023-03-01T09:45:59;33.17;;;16.27;;
25854;SDS011;13680;49.936;11.344;2023-03-01T09:48:28;32.28;;;16.65;;
25854;SDS011;13680;49.936;11.344;2023-03-01T09:50:59;27.65;;;15.50;;
25854;SDS011;13680;49.936;11.344;2023-03-01T09:53:31;30.40;;;15.45;;
25854;SDS011;13680;49.936;11.344;2023-03-01T09:58:46;30.88;;;15.27;;
25854;SDS011;13680;49.936;11.344;2023-03-01T10:06:49;27.45;;;15.70;;
25854;SDS011;13680;49.936;11.344;2023-03-01T10:09:23;25.08;;;13.90;;
25854;SDS011;13680;49.936;11.344;2023-03-01T10:11:49;26.92;;;15.32;;
25854;SDS011;13680;49.936;11.344;2023-03-01T10:17:02;26.95;;;15.32;;
25854;SDS011;13680;49.936;11.344;2023-03-01T10:19:41;27.40;;;14.20;;
25854;SDS011;13680;49.936;11.344;2023-03-01T10:22:15;26.33;;;14.77;;
25854;SDS011;13680;49.936;11.344;2023-03-01T10:24:46;29.75;;;15.82;;
25854;SDS011;13680;49.936;11.344;2023-03-01T10:30:22;32.88;;;15.20;;
25854;SDS011;13680;49.936;11.344;2023-03-01T10:32:59;27.05;;;15.32;;
25854;SDS011;13680;49.936;11.344;2023-03-01T10:35:27;30.65;;;15.65;;
25854;SDS011;13680;49.936;11.344;2023-03-01T10:38:07;31.70;;;16.40;;
25854;SDS011;13680;49.936;11.344;2023-03-01T10:43:27;27.48;;;15.60;;
25854;SDS011;13680;49.936;11.344;2023-03-01T10:46:29;24.23;;;15.02;;
25854;SDS011;13680;49.936;11.344;2023-03-01T10:49:06;33.03;;;16.02;;
25854;SDS011;13680;49.936;11.344;2023-03-01T10:51:37;25.30;;;15.13;;
25854;SDS011;13680;49.936;11.344;2023-03-01T10:54:05;31.50;;;16.00;;
25854;SDS011;13680;49.936;11.344;2023-03-01T10:56:47;27.13;;;15.68;;
25854;SDS011;13680;49.936;11.344;2023-03-01T11:04:34;31.50;;;16.38;;
25854;SDS011;13680;49.936;11.344;2023-03-01T11:07:00;28.35;;;15.43;;
25854;SDS011;13680;49.936;11.344;2023-03-01T11:09:30;25.70;;;14.95;;
25854;SDS011;13680;49.936;11.344;2023-03-01T11:12:03;31.20;;;15.80;;
25854;SDS011;13680;49.936;11.344;2023-03-01T11:14:34;28.52;;;15.77;;
25854;SDS011;13680;49.936;11.344;2023-03-01T11:20:06;29.63;;;16.50;;
25854;SDS011;13680;49.936;11.344;2023-03-01T11:22:47;26.35;;;15.07;;
25854;SDS011;13680;49.936;11.344;2023-03-01T11:25:17;26.52;;;15.25;;
25854;SDS011;13680;49.936;11.344;2023-03-01T11:27:44;24.17;;;14.45;;
25854;SDS011;13680;49.936;11.344;2023-03-01T11:30:37;21.42;;;12.75;;
25854;SDS011;13680;49.936;11.344;2023-03-01T11:36:05;23.80;;;13.50;;
25854;SDS011;13680;49.936;11.344;2023-03-01T11:38:37;23.02;;;13.68;;
25854;SDS011;13680;49.936;11.344;2023-03-01T11:43:49;23.60;;;13.38;;
25854;SDS011;13680;49.936;11.344;2023-03-01T11:51:54;22.92;;;12.90;;
25854;SDS011;13680;49.936;11.344;2023-03-01T12:11:35;24.95;;;14.15;;
25854;SDS011;13680;49.936;11.344;2023-03-01T12:14:13;22.58;;;13.13;;
25854;SDS011;13680;49.936;11.344;2023-03-01T12:19:58;21.10;;;13.07;;
25854;SDS011;13680;49.936;11.344;2023-03-01T12:22:35;24.77;;;13.82;;
25854;SDS011;13680;49.936;11.344;2023-03-01T12:25:20;24.50;;;13.32;;
25854;SDS011;13680;49.936;11.344;2023-03-01T12:46:25;20.38;;;12.90;;
25854;SDS011;13680;49.936;11.344;2023-03-01T12:51:38;19.45;;;12.73;;
25854;SDS011;13680;49.936;11.344;2023-03-01T12:54:07;26.35;;;14.25;;
25854;SDS011;13680;49.936;11.344;2023-03-01T13:02:02;22.20;;;13.52;;
25854;SDS011;13680;49.936;11.344;2023-03-01T13:10:11;20.47;;;12.33;;
25854;SDS011;13680;49.936;11.344;2023-03-01T13:15:34;24.97;;;13.33;;
25854;SDS011;13680;49.936;11.344;2023-03-01T13:18:02;23.08;;;12.60;;
25854;SDS011;13680;49.936;11.344;2023-03-01T13:20:50;26.38;;;13.80;;
25854;SDS011;13680;49.936;11.344;2023-03-01T13:28:40;22.30;;;12.65;;
25854;SDS011;13680;49.936;11.344;2023-03-01T13:33:57;19.33;;;11.07;;
25854;SDS011;13680;49.936;11.344;2023-03-01T13:46:52;18.83;;;11.30;;
25854;SDS011;13680;49.936;11.344;2023-03-01T13:49:25;17.90;;;10.82;;
25854;SDS011;13680;49.936;11.344;2023-03-01T13:51:53;30.60;;;11.65;;
25854;SDS011;13680;49.936;11.344;2023-03-01T13:54:24;18.95;;;11.10;;
25854;SDS011;13680;49.936;11.344;2023-03-01T13:56:56;18.75;;;10.32;;
25854;SDS011;13680;49.936;11.344;2023-03-01T13:59:24;17.10;;;9.90;;
25854;SDS011;13680;49.936;11.344;2023-03-01T14:01:59;19.30;;;10.75;;
25854;SDS011;13680;49.936;11.344;2023-03-01T14:04:32;17.65;;;10.85;;
25854;SDS011;13680;49.936;11.344;2023-03-01T14:09:44;20.63;;;10.70;;
25854;SDS011;13680;49.936;11.344;2023-03-01T14:12:18;17.20;;;10.02;;
25854;SDS011;13680;49.936;11.344;2023-03-01T14:14:52;17.13;;;10.73;;
25854;SDS011;13680;49.936;11.344;2023-03-01T14:17:34;16.73;;;10.05;;
25854;SDS011;13680;49.936;11.344;2023-03-01T14:20:26;16.43;;;10.23;;
25854;SDS011;13680;49.936;11.344;2023-03-01T14:22:55;18.67;;;10.82;;
25854;SDS011;13680;49.936;11.344;2023-03-01T14:25:25;25.27;;;11.30;;
25854;SDS011;13680;49.936;11.344;2023-03-01T14:30:24;19.17;;;11.90;;
25854;SDS011;13680;49.936;11.344;2023-03-01T14:32:57;17.92;;;10.45;;
25854;SDS011;13680;49.936;11.344;2023-03-01T14:35:25;18.00;;;11.45;;
25854;SDS011;13680;49.936;11.344;2023-03-01T14:37:53;20.85;;;12.25;;
25854;SDS011;13680;49.936;11.344;2023-03-01T14:42:56;21.02;;;12.50;;
25854;SDS011;13680;49.936;11.344;2023-03-01T14:45:24;24.70;;;13.15;;
25854;SDS011;13680;49.936;11.344;2023-03-01T14:47:51;18.15;;;12.18;;
25854;SDS011;13680;49.936;11.344;2023-03-01T14:52:55;18.38;;;11.60;;
25854;SDS011;13680;49.936;11.344;2023-03-01T14:58:02;21.40;;;12.50;;
25854;SDS011;13680;49.936;11.344;2023-03-01T15:00:30;19.00;;;12.32;;
25854;SDS011;13680;49.936;11.344;2023-03-01T15:02:58;21.48;;;12.32;;
25854;SDS011;13680;49.936;11.344;2023-03-01T15:05:34;22.92;;;12.93;;
25854;SDS011;13680;49.936;11.344;2023-03-01T15:08:01;22.25;;;13.77;;
25854;SDS011;13680;49.936;11.344;2023-03-01T15:10:30;27.77;;;12.77;;
25854;SDS011;13680;49.936;11.344;2023-03-01T15:13:11;24.20;;;12.80;;
25854;SDS011;13680;49.936;11.344;2023-03-01T15:15:39;25.55;;;13.18;;
25854;SDS011;13680;49.936;11.344;2023-03-01T15:18:21;20.25;;;12.82;;
25854;SDS011;13680;49.936;11.344;2023-03-01T15:20:51;26.67;;;12.85;;
25854;SDS011;13680;49.936;11.344;2023-03-01T15:23:21;25.10;;;13.73;;
25854;SDS011;13680;49.936;11.344;2023-03-01T15:25:55;23.38;;;13.05;;
25854;SDS011;13680;49.936;11.344;2023-03-01T15:28:22;22.63;;;13.10;;
25854;SDS011;13680;49.936;11.344;2023-03-01T15:30:57;26.23;;;14.02;;
25854;SDS011;13680;49.936;11.344;2023-03-01T15:33:28;25.27;;;13.52;;
25854;SDS011;13680;49.936;11.344;2023-03-01T15:35:56;24.20;;;14.00;;
25854;SDS011;13680;49.936;11.344;2023-03-01T15:38:28;25.23;;;13.70;;
25854;SDS011;13680;49.936;11.344;2023-03-01T15:40:56;25.80;;;14.20;;
25854;SDS011;13680;49.936;11.344;2023-03-01T15:48:58;29.52;;;15.80;;
25854;SDS011;13680;49.936;11.344;2023-03-01T15:51:29;26.58;;;15.32;;
25854;SDS011;13680;49.936;11.344;2023-03-01T15:53:58;26.77;;;14.77;;
25854;SDS011;13680;49.936;11.344;2023-03-01T15:56:28;31.42;;;16.90;;
25854;SDS011;13680;49.936;11.344;2023-03-01T15:58:57;31.23;;;15.68;;
25854;SDS011;13680;49.936;11.344;2023-03-01T16:01:23;29.63;;;16.48;;
25854;SDS011;13680;49.936;11.344;2023-03-01T16:03:48;32.15;;;16.70;;
25854;SDS011;13680;49.936;11.344;2023-03-01T16:06:14;32.00;;;16.58;;
25854;SDS011;13680;49.936;11.344;2023-03-01T16:08:39;34.72;;;17.38;;
25854;SDS011;13680;49.936;11.344;2023-03-01T16:11:14;31.65;;;17.02;;
25854;SDS011;13680;49.936;11.344;2023-03-01T16:13:41;34.33;;;18.38;;
25854;SDS011;13680;49.936;11.344;2023-03-01T16:16:08;34.13;;;18.55;;
25854;SDS011;13680;49.936;11.344;2023-03-01T16:18:37;34.25;;;17.65;;
25854;SDS011;13680;49.936;11.344;2023-03-01T16:21:03;32.83;;;17.85;;
25854;SDS011;13680;49.936;11.344;2023-03-01T16:23:28;32.95;;;18.02;;
25854;SDS011;13680;49.936;11.344;2023-03-01T16:25:54;37.50;;;17.88;;
25854;SDS011;13680;49.936;11.344;2023-03-01T16:28:19;33.40;;;17.95;;
25854;SDS011;13680;49.936;11.344;2023-03-01T16:30:45;34.75;;;19.00;;
25854;SDS011;13680;49.936;11.344;2023-03-01T16:33:15;32.97;;;17.48;;
25854;SDS011;13680;49.936;11.344;2023-03-01T16:35:41;32.53;;;17.92;;